Time;durP1;ratioP1;P1;durP2;ratioP2;P2;SDS_P1;SDS_P2;PMS_P1;PMS_P2;Temp;Humidity;BMP_temperature;BMP_pressure;BME280_temperature;BME280_humidity;BME280_pressure;Samples;Min_cycle;Max_cycle;Signal;HPM_P1;HPM_P2
2023/05/25 00:00:08;;;;;;;15.85;8.90;;;12.40;99.90;;;;;;5036073;28;20205;-75
2023/05/25 00:02:36;;;;;;;14.68;9.75;;;12.40;99.90;;;;;;5053830;28;20225;-74
2023/05/25 00:05:04;;;;;;;26.15;10.85;;;12.50;99.90;;;;;;5048913;28;20200;-75
2023/05/25 00:07:31;;;;;;;17.20;9.90;;;12.50;99.90;;;;;;5042917;28;20233;-74
2023/05/25 00:09:58;;;;;;;14.65;9.00;;;12.60;99.90;;;;;;5047852;28;20194;-74
2023/05/25 00:12:25;;;;;;;23.10;11.50;;;12.50;99.90;;;;;;5046663;28;20312;-75
2023/05/25 00:14:52;;;;;;;19.80;10.85;;;12.50;99.90;;;;;;5049432;28;20282;-74
2023/05/25 00:17:20;;;;;;;17.50;9.82;;;12.50;99.90;;;;;;5048938;28;20202;-74
2023/05/25 00:19:47;;;;;;;13.20;8.93;;;12.50;99.90;;;;;;5047462;28;20550;-74
2023/05/25 00:22:16;;;;;;;16.20;9.05;;;12.60;99.90;;;;;;5045485;28;20308;-75
2023/05/25 00:24:43;;;;;;;12.02;8.25;;;12.60;99.90;;;;;;5049779;28;20248;-76
2023/05/25 00:27:10;;;;;;;12.15;7.38;;;12.60;99.90;;;;;;5041134;28;20669;-76
2023/05/25 00:29:36;;;;;;;14.98;9.18;;;12.60;99.90;;;;;;5043858;28;20257;-75
2023/05/25 00:32:04;;;;;;;17.25;8.10;;;12.60;99.90;;;;;;5050040;28;20735;-75
2023/05/25 00:34:31;;;;;;;16.80;8.43;;;12.60;99.90;;;;;;5052631;28;20207;-76
2023/05/25 00:36:58;;;;;;;13.35;8.00;;;12.60;99.90;;;;;;5052761;28;20205;-76
2023/05/25 00:39:26;;;;;;;15.07;8.77;;;12.60;99.90;;;;;;5054204;28;20506;-75
2023/05/25 00:41:56;;;;;;;19.08;9.75;;;12.50;99.90;;;;;;5050121;28;20218;-75
2023/05/25 00:44:23;;;;;;;18.67;8.82;;;12.50;99.90;;;;;;5047771;28;20606;-74
2023/05/25 00:46:51;;;;;;;16.27;8.68;;;12.40;99.90;;;;;;5045449;28;20198;-76
2023/05/25 00:49:19;;;;;;;12.70;9.25;;;12.40;99.90;;;;;;5050340;28;20196;-76
2023/05/25 00:51:47;;;;;;;14.43;6.75;;;12.40;99.90;;;;;;5045332;28;20313;-75
2023/05/25 00:54:14;;;;;;;18.27;9.68;;;12.50;99.90;;;;;;5045170;28;20293;-75
2023/05/25 00:56:47;;;;;;;18.60;8.10;;;12.40;99.90;;;;;;5053355;28;20209;-75
2023/05/25 00:59:20;;;;;;;21.52;9.10;;;12.40;99.90;;;;;;5052810;28;20232;-77
2023/05/25 01:01:48;;;;;;;19.77;8.43;;;12.40;99.90;;;;;;5039055;28;20302;-75
2023/05/25 01:04:18;;;;;;;17.02;9.27;;;12.40;99.90;;;;;;5049991;28;20283;-74
2023/05/25 01:06:48;;;;;;;13.95;8.68;;;12.40;99.90;;;;;;5045129;28;20195;-75
2023/05/25 01:09:19;;;;;;;14.40;8.32;;;12.40;99.90;;;;;;5044909;28;20283;-75
2023/05/25 01:11:51;;;;;;;14.48;8.85;;;12.40;99.90;;;;;;5055438;28;20348;-75
2023/05/25 01:14:20;;;;;;;17.52;8.20;;;12.40;99.90;;;;;;5058116;28;20228;-74
2023/05/25 01:16:48;;;;;;;13.23;7.95;;;12.40;99.90;;;;;;5069180;28;20291;-75
2023/05/25 01:19:15;;;;;;;18.00;7.60;;;12.40;99.90;;;;;;5058403;28;20626;-76
2023/05/25 01:21:50;;;;;;;14.55;8.15;;;12.40;99.90;;;;;;5069854;28;20232;-73
2023/05/25 01:24:22;;;;;;;17.05;8.88;;;12.40;99.90;;;;;;5066230;28;20201;-76
2023/05/25 01:26:56;;;;;;;18.50;8.68;;;12.40;99.90;;;;;;5067259;28;20288;-75
2023/05/25 01:29:25;;;;;;;19.40;8.63;;;12.50;99.90;;;;;;5063567;28;20206;-75
2023/05/25 01:31:54;;;;;;;17.25;8.60;;;12.50;99.90;;;;;;5062878;28;20222;-76
2023/05/25 01:34:22;;;;;;;15.63;8.35;;;12.50;99.90;;;;;;5059830;28;20214;-75
2023/05/25 01:36:51;;;;;;;25.10;8.98;;;12.50;99.90;;;;;;5051277;28;20217;-75
2023/05/25 01:39:21;;;;;;;18.83;7.60;;;12.50;99.90;;;;;;5055928;28;20285;-75
2023/05/25 01:41:49;;;;;;;25.55;9.98;;;12.50;99.90;;;;;;5065891;28;20214;-75
2023/05/25 01:44:17;;;;;;;18.25;8.77;;;12.60;99.90;;;;;;5056659;28;20301;-75
2023/05/25 01:46:44;;;;;;;18.00;8.77;;;12.60;99.90;;;;;;5057391;28;20210;-75
2023/05/25 01:49:20;;;;;;;16.65;8.82;;;12.60;99.90;;;;;;5057539;28;20281;-74
2023/05/25 01:51:58;;;;;;;18.58;8.70;;;12.60;99.90;;;;;;5058143;28;20219;-75
2023/05/25 01:54:32;;;;;;;27.63;8.80;;;12.70;99.90;;;;;;5050229;28;20302;-73
2023/05/25 01:57:01;;;;;;;15.35;7.47;;;12.70;99.90;;;;;;5054698;28;20301;-74
2023/05/25 01:59:29;;;;;;;17.50;7.88;;;12.70;99.90;;;;;;5054866;28;20656;-75
2023/05/25 02:01:58;;;;;;;18.33;7.13;;;12.70;99.90;;;;;;5056447;28;20566;-75
2023/05/25 02:04:26;;;;;;;18.02;8.20;;;12.70;99.90;;;;;;5051607;28;20567;-75
2023/05/25 02:06:54;;;;;;;22.30;7.57;;;12.70;99.90;;;;;;5051827;28;20248;-76
2023/05/25 02:09:21;;;;;;;16.77;7.10;;;12.80;99.90;;;;;;5044646;28;20196;-74
2023/05/25 02:11:48;;;;;;;24.25;8.25;;;12.80;99.90;;;;;;5053704;28;20247;-75
2023/05/25 02:14:16;;;;;;;14.95;7.90;;;12.80;99.90;;;;;;5062048;28;20222;-75
2023/05/25 02:16:44;;;;;;;12.50;7.57;;;12.80;99.90;;;;;;5065190;28;20255;-74
2023/05/25 02:19:13;;;;;;;12.98;9.38;;;12.90;99.90;;;;;;5061124;28;20199;-76
2023/05/25 02:21:40;;;;;;;15.50;9.30;;;12.80;99.90;;;;;;5056723;28;20237;-75
2023/05/25 02:24:10;;;;;;;15.65;10.02;;;12.70;99.90;;;;;;5054812;28;20286;-75
2023/05/25 02:26:38;;;;;;;12.70;9.55;;;12.60;99.90;;;;;;5049165;28;20229;-74
2023/05/25 02:29:05;;;;;;;18.85;10.10;;;12.50;99.90;;;;;;5048968;28;20290;-75
2023/05/25 02:31:33;;;;;;;23.63;11.55;;;12.50;99.90;;;;;;5050716;28;20583;-75
2023/05/25 02:34:00;;;;;;;21.98;11.50;;;12.50;99.90;;;;;;5053207;28;20215;-75
2023/05/25 02:36:27;;;;;;;16.85;11.93;;;12.40;99.90;;;;;;5055316;28;20304;-76
2023/05/25 02:38:54;;;;;;;20.80;10.73;;;12.40;99.90;;;;;;5048073;28;20269;-74
2023/05/25 02:41:23;;;;;;;19.38;10.40;;;12.40;99.90;;;;;;5052705;28;20206;-75
2023/05/25 02:43:50;;;;;;;17.17;11.15;;;12.40;99.90;;;;;;5061074;28;20655;-76
2023/05/25 02:46:17;;;;;;;16.83;11.75;;;12.40;99.90;;;;;;5055513;28;20656;-77
2023/05/25 02:48:43;;;;;;;23.40;12.85;;;12.30;99.90;;;;;;5054754;28;20195;-74
2023/05/25 02:51:10;;;;;;;16.50;10.93;;;12.40;99.90;;;;;;5052595;28;20249;-74
2023/05/25 02:53:37;;;;;;;26.17;13.10;;;12.40;99.90;;;;;;5053541;28;20217;-77
2023/05/25 02:56:05;;;;;;;24.70;13.52;;;12.40;99.90;;;;;;5053531;28;20744;-75
2023/05/25 02:58:33;;;;;;;39.95;14.10;;;12.20;99.90;;;;;;5054029;28;20219;-74
2023/05/25 03:01:00;;;;;;;24.85;12.55;;;12.30;99.90;;;;;;5055422;28;20218;-74
2023/05/25 03:03:27;;;;;;;25.80;13.60;;;12.30;99.90;;;;;;5052139;28;20261;-74
2023/05/25 03:05:55;;;;;;;28.05;14.35;;;12.20;99.90;;;;;;5051044;28;20720;-74
2023/05/25 03:08:22;;;;;;;21.23;14.93;;;12.20;99.90;;;;;;5054479;28;20199;-75
2023/05/25 03:10:49;;;;;;;28.67;16.27;;;12.20;99.90;;;;;;5039230;28;20619;-75
2023/05/25 03:13:16;;;;;;;21.70;14.55;;;12.20;99.90;;;;;;5043499;28;20224;-75
2023/05/25 03:15:45;;;;;;;28.70;15.15;;;12.20;99.90;;;;;;5061760;28;20309;-75
2023/05/25 03:18:12;;;;;;;27.10;15.98;;;12.20;99.90;;;;;;5048299;28;20278;-75
2023/05/25 03:20:40;;;;;;;26.27;14.88;;;12.20;99.90;;;;;;5051910;28;20234;-74
2023/05/25 03:23:07;;;;;;;19.02;14.50;;;12.10;99.90;;;;;;5054965;28;20753;-75
2023/05/25 03:25:33;;;;;;;32.17;16.63;;;12.10;99.90;;;;;;5054303;28;20668;-75
2023/05/25 03:28:00;;;;;;;23.70;16.10;;;12.20;99.90;;;;;;5053217;28;20193;-74
2023/05/25 03:30:28;;;;;;;23.63;14.93;;;12.20;99.90;;;;;;5054542;28;20617;-75
2023/05/25 03:32:56;;;;;;;23.55;15.18;;;12.20;99.90;;;;;;5054537;28;20253;-75
2023/05/25 03:35:23;;;;;;;23.17;13.82;;;12.20;99.90;;;;;;5056380;28;20288;-74
2023/05/25 03:37:50;;;;;;;24.48;16.52;;;12.20;99.90;;;;;;5052478;28;20283;-75
2023/05/25 03:40:17;;;;;;;22.23;14.38;;;12.20;99.90;;;;;;5047903;28;20279;-74
2023/05/25 03:42:44;;;;;;;29.17;16.80;;;12.10;99.90;;;;;;5047019;28;20214;-75
2023/05/25 03:45:11;;;;;;;26.15;16.60;;;12.20;99.90;;;;;;5058453;28;20296;-75
2023/05/25 03:47:38;;;;;;;23.13;16.15;;;12.10;99.90;;;;;;5047327;28;20195;-75
2023/05/25 03:50:08;;;;;;;22.38;16.45;;;12.10;99.90;;;;;;5041334;28;20300;-74
2023/05/25 03:52:35;;;;;;;30.67;15.80;;;12.10;99.90;;;;;;5047717;28;20714;-75
2023/05/25 03:55:03;;;;;;;31.92;16.70;;;12.10;99.90;;;;;;5056472;28;20199;-74
2023/05/25 03:57:30;;;;;;;23.10;15.20;;;12.10;99.90;;;;;;5047332;28;20232;-76
2023/05/25 03:59:57;;;;;;;29.77;16.73;;;12.20;99.90;;;;;;5048743;28;20200;-75
2023/05/25 04:02:24;;;;;;;34.58;19.13;;;12.20;99.90;;;;;;5042637;28;20305;-75
2023/05/25 04:04:53;;;;;;;20.52;14.70;;;12.20;99.90;;;;;;5050655;28;20206;-77
2023/05/25 04:07:21;;;;;;;26.83;17.33;;;12.30;99.90;;;;;;5051730;28;20594;-75
2023/05/25 04:09:48;;;;;;;36.92;15.88;;;12.30;99.90;;;;;;5049450;28;20205;-77
2023/05/25 04:12:15;;;;;;;28.70;15.82;;;12.40;99.90;;;;;;5045406;28;20224;-76
2023/05/25 04:14:42;;;;;;;29.33;15.85;;;12.40;99.90;;;;;;5051649;28;20201;-76
2023/05/25 04:17:09;;;;;;;25.17;16.15;;;12.40;99.90;;;;;;5047722;28;20585;-76
2023/05/25 04:19:36;;;;;;;29.45;17.92;;;12.40;99.90;;;;;;5046850;28;20201;-75
2023/05/25 04:22:03;;;;;;;19.58;15.07;;;12.40;99.90;;;;;;5049895;28;20228;-77
2023/05/25 04:24:31;;;;;;;26.92;15.00;;;12.50;99.90;;;;;;5046426;28;20202;-76
2023/05/25 04:26:58;;;;;;;31.13;15.85;;;12.40;99.90;;;;;;5044532;28;20190;-78
2023/05/25 04:29:25;;;;;;;32.45;16.50;;;12.50;99.90;;;;;;5046524;28;20191;-75
2023/05/25 04:31:53;;;;;;;24.65;16.13;;;12.60;99.90;;;;;;5046882;28;20565;-76
2023/05/25 04:34:20;;;;;;;27.35;16.23;;;12.60;99.90;;;;;;5041698;28;20201;-75
2023/05/25 04:36:47;;;;;;;26.30;15.60;;;12.60;99.90;;;;;;5050606;28;20223;-73
2023/05/25 04:39:14;;;;;;;29.30;16.00;;;12.60;99.90;;;;;;5048544;28;20201;-76
2023/05/25 04:41:43;;;;;;;26.05;16.08;;;12.60;99.90;;;;;;5045530;28;20712;-75
2023/05/25 04:44:10;;;;;;;28.35;16.83;;;12.70;99.90;;;;;;5050873;28;20206;-75
2023/05/25 04:46:37;;;;;;;28.85;16.45;;;12.70;99.90;;;;;;5041903;28;20198;-76
2023/05/25 04:49:07;;;;;;;27.45;14.82;;;12.80;99.90;;;;;;5048106;28;20209;-74
2023/05/25 04:51:33;;;;;;;24.73;16.30;;;12.90;99.90;;;;;;5048503;28;20207;-75
2023/05/25 04:54:00;;;;;;;33.05;15.73;;;13.00;99.90;;;;;;5041697;28;20203;-74
2023/05/25 04:56:27;;;;;;;27.33;14.50;;;13.10;99.90;;;;;;5056371;28;20246;-74
2023/05/25 04:58:56;;;;;;;20.40;12.88;;;13.40;99.90;;;;;;5053112;28;20247;-77
2023/05/25 05:01:22;;;;;;;18.90;13.98;;;14.00;99.90;;;;;;5048361;28;20199;-76
2023/05/25 05:03:49;;;;;;;17.60;12.88;;;14.40;99.90;;;;;;5045757;28;20313;-77
2023/05/25 05:06:16;;;;;;;18.73;11.82;;;14.60;99.90;;;;;;5051532;28;20199;-76
2023/05/25 05:08:43;;;;;;;25.27;11.57;;;14.60;99.90;;;;;;5051723;28;20633;-74
2023/05/25 05:11:10;;;;;;;23.63;12.40;;;14.60;99.90;;;;;;5055802;28;20238;-74
2023/05/25 05:13:37;;;;;;;15.48;11.95;;;14.60;99.90;;;;;;5051662;28;20697;-74
2023/05/25 05:16:06;;;;;;;15.02;10.18;;;14.70;99.90;;;;;;5046219;28;20303;-75
2023/05/25 05:18:33;;;;;;;19.55;10.90;;;14.60;99.90;;;;;;5051265;28;20602;-75
2023/05/25 05:21:00;;;;;;;18.45;10.57;;;14.60;99.90;;;;;;5048884;28;20306;-76
2023/05/25 05:23:27;;;;;;;11.55;9.57;;;14.60;99.90;;;;;;5052278;28;20245;-76
2023/05/25 05:25:54;;;;;;;15.25;8.98;;;14.70;99.90;;;;;;5054211;28;20314;-76
2023/05/25 05:28:20;;;;;;;15.32;8.52;;;14.90;99.90;;;;;;5046819;28;20225;-76
2023/05/25 05:30:47;;;;;;;13.10;7.30;;;15.00;99.90;;;;;;5050488;28;20203;-74
2023/05/25 05:33:16;;;;;;;11.23;7.60;;;15.00;99.90;;;;;;5049050;28;20231;-75
2023/05/25 05:35:43;;;;;;;11.80;8.55;;;15.10;99.90;;;;;;5055345;28;20635;-74
2023/05/25 05:38:09;;;;;;;12.70;7.32;;;15.10;99.90;;;;;;5046329;28;20735;-76
2023/05/25 05:40:38;;;;;;;19.80;7.30;;;15.20;99.90;;;;;;5045841;28;20601;-75
2023/05/25 05:43:05;;;;;;;19.45;8.27;;;15.30;99.90;;;;;;5052421;28;20698;-75
2023/05/25 05:45:32;;;;;;;12.98;7.18;;;15.30;99.90;;;;;;5045821;28;20209;-77
2023/05/25 05:48:00;;;;;;;11.90;7.45;;;15.30;99.90;;;;;;5054889;28;20312;-78
2023/05/25 05:50:29;;;;;;;16.40;8.15;;;15.20;99.90;;;;;;5047161;28;20215;-74
2023/05/25 05:52:55;;;;;;;19.23;8.07;;;15.20;99.90;;;;;;5055128;28;20215;-75
2023/05/25 05:55:22;;;;;;;10.32;7.22;;;15.10;99.90;;;;;;5049236;28;20652;-74
2023/05/25 05:57:49;;;;;;;14.18;8.55;;;15.10;99.90;;;;;;5049451;28;20237;-74
2023/05/25 06:00:18;;;;;;;11.65;6.78;;;15.10;99.90;;;;;;5043377;28;20211;-73
2023/05/25 06:02:45;;;;;;;9.57;6.43;;;14.90;99.90;;;;;;5048416;28;20730;-74
2023/05/25 06:05:12;;;;;;;12.55;5.45;;;14.90;99.90;;;;;;5047371;28;20207;-75
2023/05/25 06:07:40;;;;;;;9.32;6.40;;;14.90;99.90;;;;;;5056466;28;20655;-74
2023/05/25 06:10:08;;;;;;;10.57;5.80;;;14.90;99.90;;;;;;5053616;28;20275;-75
2023/05/25 06:12:36;;;;;;;13.75;5.65;;;15.00;99.90;;;;;;5049756;28;20216;-76
2023/05/25 06:15:05;;;;;;;16.08;7.35;;;15.00;99.90;;;;;;5050924;28;20196;-74
2023/05/25 06:17:32;;;;;;;11.68;5.38;;;15.00;99.90;;;;;;5050968;28;20211;-75
2023/05/25 06:19:58;;;;;;;11.70;6.60;;;15.00;99.90;;;;;;5051822;28;20239;-76
2023/05/25 06:22:26;;;;;;;20.50;6.55;;;15.00;99.90;;;;;;5047710;28;20730;-75
2023/05/25 06:24:55;;;;;;;9.52;5.85;;;15.00;99.90;;;;;;5056143;28;20300;-77
2023/05/25 06:27:23;;;;;;;10.65;5.70;;;15.10;99.90;;;;;;5052025;28;20280;-75
2023/05/25 06:29:50;;;;;;;18.40;5.78;;;15.20;99.90;;;;;;5050798;28;20198;-74
2023/05/25 06:32:17;;;;;;;10.40;6.07;;;15.40;99.90;;;;;;5051589;28;20247;-76
2023/05/25 06:34:43;;;;;;;7.15;4.95;;;15.40;99.90;;;;;;5044558;28;20208;-75
2023/05/25 06:37:13;;;;;;;12.77;6.20;;;15.50;99.90;;;;;;5049939;28;20228;-74
2023/05/25 06:39:41;;;;;;;14.07;6.10;;;15.50;99.90;;;;;;5044091;28;20248;-75
2023/05/25 06:42:11;;;;;;;14.57;6.32;;;15.50;99.90;;;;;;5049568;28;20225;-73
2023/05/25 06:44:38;;;;;;;13.60;5.75;;;15.50;99.90;;;;;;5047658;28;20964;-75
2023/05/25 06:47:05;;;;;;;17.60;5.25;;;15.40;99.90;;;;;;5062569;28;20271;-77
2023/05/25 06:49:32;;;;;;;10.38;4.82;;;15.40;99.90;;;;;;5055973;28;20261;-74
2023/05/25 06:51:59;;;;;;;8.70;4.53;;;15.40;99.90;;;;;;5068590;28;20616;-77
2023/05/25 06:54:26;;;;;;;13.52;4.55;;;15.50;99.90;;;;;;5060052;28;20234;-75
2023/05/25 06:56:53;;;;;;;7.10;5.35;;;15.50;99.90;;;;;;5067066;28;20209;-75
2023/05/25 06:59:22;;;;;;;12.52;4.93;;;15.60;99.90;;;;;;5053345;28;20204;-73
2023/05/25 07:01:49;;;;;;;15.05;4.90;;;15.70;99.90;;;;;;5055311;28;20233;-76
2023/05/25 07:04:16;;;;;;;16.60;5.22;;;15.80;99.90;;;;;;5054649;28;20249;-71
2023/05/25 07:06:43;;;;;;;10.32;4.55;;;15.80;99.90;;;;;;5051536;28;20840;-73
2023/05/25 07:09:10;;;;;;;14.50;6.70;;;15.80;99.90;;;;;;5055593;28;20220;-73
2023/05/25 07:11:37;;;;;;;9.30;4.80;;;16.00;99.90;;;;;;5051601;28;20201;-73
2023/05/25 07:14:05;;;;;;;6.82;4.60;;;16.10;99.90;;;;;;5047357;28;20445;-74
2023/05/25 07:16:33;;;;;;;10.95;4.05;;;16.10;99.90;;;;;;5051660;28;20234;-75
2023/05/25 07:19:00;;;;;;;12.10;4.35;;;16.10;99.90;;;;;;5043975;28;20230;-73
2023/05/25 07:21:27;;;;;;;17.57;6.23;;;16.10;99.90;;;;;;5038291;28;20304;-73
2023/05/25 07:23:54;;;;;;;15.80;4.40;;;16.00;99.90;;;;;;5044210;28;20439;-74
2023/05/25 07:26:22;;;;;;;11.53;4.60;;;16.00;99.90;;;;;;5048324;28;20189;-74
2023/05/25 07:28:50;;;;;;;12.05;4.65;;;16.10;99.90;;;;;;5048927;28;20437;-75
2023/05/25 07:31:17;;;;;;;14.13;5.10;;;16.20;99.90;;;;;;5049156;28;20207;-75
2023/05/25 07:33:45;;;;;;;11.47;4.97;;;16.50;99.90;;;;;;5048169;28;20949;-73
2023/05/25 07:36:12;;;;;;;8.30;4.40;;;17.80;99.90;;;;;;5052011;28;20509;-75
2023/05/25 07:38:40;;;;;;;17.00;6.20;;;18.80;99.90;;;;;;5048856;28;20466;-73
2023/05/25 07:41:08;;;;;;;13.83;5.10;;;19.00;99.90;;;;;;5036313;28;20466;-74
2023/05/25 07:43:36;;;;;;;10.80;5.40;;;18.80;99.30;;;;;;5042897;28;20506;-72
2023/05/25 07:46:03;;;;;;;10.10;4.00;;;18.50;99.90;;;;;;5047886;28;20441;-71
2023/05/25 07:48:29;;;;;;;10.97;4.57;;;18.20;99.90;;;;;;5042778;28;20839;-73
2023/05/25 07:50:59;;;;;;;16.60;5.07;;;18.00;99.90;;;;;;5043551;28;20446;-73
2023/05/25 07:53:26;;;;;;;12.13;4.77;;;17.80;99.90;;;;;;5050826;28;20466;-74
2023/05/25 07:55:53;;;;;;;9.13;4.10;;;17.70;99.90;;;;;;5045745;28;20530;-73
2023/05/25 07:58:20;;;;;;;14.37;5.53;;;17.70;99.90;;;;;;5050670;28;20496;-73
2023/05/25 08:00:48;;;;;;;12.23;3.93;;;17.70;99.50;;;;;;5050623;28;20507;-74
2023/05/25 08:03:16;;;;;;;10.67;4.00;;;17.60;99.70;;;;;;5046865;28;20793;-75
2023/05/25 08:05:43;;;;;;;10.80;4.63;;;17.60;99.60;;;;;;5050701;28;20449;-73
2023/05/25 08:08:13;;;;;;;12.70;4.57;;;17.60;98.80;;;;;;5042180;28;20441;-73
2023/05/25 08:10:40;;;;;;;9.90;4.90;;;17.70;98.70;;;;;;5041675;28;20445;-74
2023/05/25 08:13:08;;;;;;;12.97;5.07;;;17.80;98.50;;;;;;5049776;28;20508;-74
2023/05/25 08:15:34;;;;;;;10.93;4.93;;;18.00;97.80;;;;;;5041309;28;20449;-73
2023/05/25 08:18:03;;;;;;;12.57;4.93;;;18.20;96.90;;;;;;5038001;28;20515;-74
2023/05/25 08:20:31;;;;;;;17.63;5.07;;;18.50;96.90;;;;;;5049218;28;20478;-73
2023/05/25 08:22:58;;;;;;;19.33;6.03;;;19.80;95.40;;;;;;5045869;28;20988;-72
2023/05/25 08:25:26;;;;;;;10.40;3.63;;;21.10;92.60;;;;;;5047293;28;20928;-73
2023/05/25 08:27:53;;;;;;;11.03;4.67;;;21.90;90.30;;;;;;5045688;28;20470;-73
2023/05/25 08:30:20;;;;;;;10.50;3.93;;;22.00;89.00;;;;;;5046044;28;20537;-72
2023/05/25 08:32:47;;;;;;;13.57;5.13;;;21.50;88.90;;;;;;5045775;28;20493;-73
2023/05/25 08:35:16;;;;;;;14.40;5.17;;;20.90;90.00;;;;;;5051551;28;20505;-72
2023/05/25 08:37:43;;;;;;;12.20;4.50;;;20.40;90.60;;;;;;5059459;28;20478;-74
2023/05/25 08:40:15;;;;;;;16.23;5.47;;;19.80;91.40;;;;;;5053248;28;20445;-73
2023/05/25 08:42:46;;;;;;;14.60;5.83;;;19.40;92.00;;;;;;5040732;28;20457;-72
2023/05/25 08:45:13;;;;;;;15.47;4.70;;;19.30;92.60;;;;;;5047270;28;20864;-73
2023/05/25 08:47:43;;;;;;;13.07;4.30;;;19.20;92.40;;;;;;5054846;28;20437;-73
2023/05/25 08:50:12;;;;;;;15.00;4.87;;;19.10;92.20;;;;;;5049032;28;20437;-75
2023/05/25 08:52:44;;;;;;;14.90;4.10;;;19.00;92.10;;;;;;5045163;28;20461;-72
2023/05/25 08:55:12;;;;;;;11.93;3.87;;;19.70;92.20;;;;;;5056994;28;20472;-76
2023/05/25 08:57:45;;;;;;;15.50;5.10;;;21.50;90.70;;;;;;5050741;28;20512;-74
2023/05/25 09:00:17;;;;;;;20.57;6.20;;;22.50;87.10;;;;;;5044090;28;20530;-73
2023/05/25 09:02:50;;;;;;;13.80;5.20;;;22.40;83.90;;;;;;5050539;28;20461;-73
2023/05/25 09:05:18;;;;;;;12.43;4.67;;;22.20;83.90;;;;;;5043168;28;20434;-73
2023/05/25 09:07:46;;;;;;;14.30;5.53;;;21.90;84.80;;;;;;5050343;28;20491;-73
2023/05/25 09:10:14;;;;;;;14.90;4.60;;;21.50;85.60;;;;;;5041465;28;20433;-73
2023/05/25 09:12:42;;;;;;;12.73;5.00;;;20.90;86.40;;;;;;5046757;28;20965;-74
2023/05/25 09:15:12;;;;;;;14.37;5.30;;;20.30;87.60;;;;;;5051879;28;20516;-75
2023/05/25 09:17:41;;;;;;;15.90;6.20;;;20.00;89.00;;;;;;5042911;28;20478;-73
2023/05/25 09:20:10;;;;;;;17.03;5.30;;;19.80;89.80;;;;;;5043479;28;20450;-73
2023/05/25 09:22:37;;;;;;;11.00;5.10;;;19.40;90.70;;;;;;5050044;28;20568;-74
2023/05/25 09:25:07;;;;;;;15.63;6.00;;;19.50;90.70;;;;;;5048375;28;20482;-74
2023/05/25 09:27:36;;;;;;;15.00;5.13;;;19.60;90.30;;;;;;5038933;28;20494;-74
2023/05/25 09:30:04;;;;;;;14.67;5.20;;;19.80;90.20;;;;;;5041868;28;20915;-75
2023/05/25 09:32:31;;;;;;;13.90;5.40;;;19.80;90.30;;;;;;5048223;28;20556;-74
2023/05/25 09:35:07;;;;;;;17.33;6.57;;;19.70;90.50;;;;;;5043366;28;20440;-73
2023/05/25 09:37:35;;;;;;;16.23;5.87;;;19.60;90.50;;;;;;5046084;28;20480;-74
2023/05/25 09:40:02;;;;;;;22.40;6.50;;;19.50;90.80;;;;;;5042913;28;20892;-75
2023/05/25 09:42:29;;;;;;;13.37;5.60;;;19.60;91.00;;;;;;5061547;28;20461;-72
2023/05/25 09:44:58;;;;;;;11.53;5.50;;;19.90;91.60;;;;;;5049152;28;20485;-74
2023/05/25 09:47:25;;;;;;;17.03;5.43;;;20.50;90.20;;;;;;5049693;28;20436;-73
2023/05/25 09:49:52;;;;;;;14.83;5.30;;;20.60;89.10;;;;;;5053945;28;20533;-73
2023/05/25 09:52:21;;;;;;;14.77;5.83;;;20.80;90.10;;;;;;5052688;28;20465;-74
2023/05/25 09:54:49;;;;;;;13.80;5.37;;;21.20;89.70;;;;;;5061563;28;20469;-74
2023/05/25 09:57:16;;;;;;;17.53;7.10;;;22.40;87.70;;;;;;5047747;28;20434;-73
2023/05/25 09:59:44;;;;;;;13.60;5.73;;;23.00;84.80;;;;;;5058805;28;20452;-74
2023/05/25 10:02:11;;;;;;;9.70;4.33;;;22.90;84.00;;;;;;5048357;28;20467;-73
2023/05/25 10:04:38;;;;;;;17.27;6.37;;;22.60;83.20;;;;;;5064922;28;20539;-76
2023/05/25 10:07:05;;;;;;;19.37;6.17;;;22.30;85.10;;;;;;5053725;28;20948;-74
2023/05/25 10:09:39;;;;;;;26.33;8.90;;;22.00;85.10;;;;;;5061324;28;20519;-74
2023/05/25 10:12:07;;;;;;;22.07;6.43;;;21.60;85.50;;;;;;5061816;28;20517;-74
2023/05/25 10:14:37;;;;;;;17.13;5.90;;;21.90;87.10;;;;;;5068095;28;20463;-74
2023/05/25 10:17:05;;;;;;;22.30;8.70;;;22.60;85.50;;;;;;5058021;28;20429;-74
2023/05/25 10:19:40;;;;;;;18.33;6.63;;;23.10;83.60;;;;;;5064502;28;20481;-74
2023/05/25 10:22:20;;;;;;;19.33;7.40;;;22.60;83.40;;;;;;5065719;28;20548;-72
2023/05/25 10:24:54;;;;;;;15.67;5.87;;;22.30;84.10;;;;;;5048614;28;20442;-74
2023/05/25 10:27:24;;;;;;;21.23;6.00;;;22.60;82.80;;;;;;5048204;28;20465;-74
2023/05/25 10:29:55;;;;;;;18.17;7.10;;;22.30;82.20;;;;;;5046500;28;20771;-74
2023/05/25 10:32:23;;;;;;;18.20;6.87;;;21.80;83.10;;;;;;5044235;28;20459;-74
2023/05/25 10:34:52;;;;;;;10.57;5.60;;;21.40;85.40;;;;;;5051434;28;20529;-73
2023/05/25 10:37:19;;;;;;;18.13;5.90;;;21.40;83.70;;;;;;5046551;28;20867;-73
2023/05/25 10:39:46;;;;;;;22.40;7.00;;;21.50;83.40;;;;;;5047800;28;20533;-74
2023/05/25 10:42:14;;;;;;;25.83;7.70;;;21.80;83.60;;;;;;5054297;28;20462;-75
2023/05/25 10:44:42;;;;;;;16.60;6.00;;;21.90;83.40;;;;;;5048418;28;20471;-73
2023/05/25 10:47:10;;;;;;;18.30;7.07;;;21.60;82.80;;;;;;5052788;28;20443;-74
2023/05/25 10:49:53;;;;;;;22.33;6.67;;;21.10;85.10;;;;;;5047794;28;20441;-74
2023/05/25 10:52:20;;;;;;;18.83;5.80;;;20.80;85.30;;;;;;5046419;28;20553;-75
2023/05/25 10:54:48;;;;;;;14.70;5.90;;;20.80;86.90;;;;;;5049688;28;20445;-74
2023/05/25 10:57:20;;;;;;;14.07;5.43;;;21.30;86.60;;;;;;5044495;28;20442;-74
2023/05/25 10:59:58;;;;;;;19.20;6.33;;;21.70;84.20;;;;;;5049029;28;20466;-73
2023/05/25 11:02:27;;;;;;;16.17;6.20;;;22.00;83.90;;;;;;5048457;28;21025;-73
2023/05/25 11:05:28;;;;;;;16.30;6.20;;;22.20;83.70;;;;;;5054194;28;20438;-75
2023/05/25 11:07:56;;;;;;;14.43;7.53;;;22.40;83.40;;;;;;5045399;28;20856;-72
2023/05/25 11:10:52;;;;;;;16.73;6.17;;;22.30;82.60;;;;;;5053543;28;20473;-73
2023/05/25 11:13:34;;;;;;;24.90;6.87;;;22.00;82.80;;;;;;5048325;28;20468;-74
2023/05/25 11:16:17;;;;;;;24.53;8.03;;;21.60;83.10;;;;;;5047238;28;20513;-74
2023/05/25 11:18:46;;;;;;;18.47;6.23;;;21.60;83.40;;;;;;5051811;28;20567;-73
2023/05/25 11:21:17;;;;;;;22.43;7.63;;;21.70;82.90;;;;;;5055705;28;20487;-73
2023/05/25 11:23:55;;;;;;;13.93;5.63;;;21.90;82.60;;;;;;5044330;28;20473;-73
2023/05/25 11:26:23;;;;;;;15.60;5.30;;;21.90;82.20;;;;;;5049115;28;20448;-71
2023/05/25 11:28:53;;;;;;;22.23;7.10;;;21.70;82.70;;;;;;5047983;28;20531;-74
2023/05/25 11:31:22;;;;;;;16.67;6.10;;;21.50;81.60;;;;;;5048362;28;20536;-74
2023/05/25 11:33:56;;;;;;;26.40;6.50;;;21.50;83.60;;;;;;5043811;28;20526;-74
2023/05/25 11:36:24;;;;;;;18.47;6.40;;;21.40;82.40;;;;;;5038432;28;20449;-72
2023/05/25 11:38:53;;;;;;;19.97;5.70;;;21.10;84.10;;;;;;5060811;28;20964;-74
2023/05/25 11:41:20;;;;;;;14.73;5.77;;;20.80;83.80;;;;;;5047451;28;20640;-73
2023/05/25 11:43:49;;;;;;;18.30;6.30;;;20.60;84.00;;;;;;5053884;28;20474;-73
2023/05/25 11:46:19;;;;;;;20.43;7.13;;;20.40;84.70;;;;;;5049272;28;20443;-74
2023/05/25 11:48:51;;;;;;;18.43;6.37;;;20.10;85.80;;;;;;5060226;28;20442;-73
2023/05/25 11:51:20;;;;;;;14.87;6.10;;;20.20;85.50;;;;;;5053120;28;20437;-74
2023/05/25 11:53:48;;;;;;;21.20;7.00;;;20.50;85.70;;;;;;5063088;28;20460;-74
2023/05/25 11:56:17;;;;;;;19.90;6.80;;;20.60;83.70;;;;;;5064823;28;20433;-79
2023/05/25 11:58:46;;;;;;;19.37;6.47;;;20.60;84.30;;;;;;5062725;28;20534;-75
2023/05/25 12:01:18;;;;;;;16.53;5.50;;;20.90;83.80;;;;;;5057765;28;20444;-74
2023/05/25 12:03:46;;;;;;;19.47;6.40;;;21.10;83.50;;;;;;5060952;28;20545;-73
2023/05/25 12:06:29;;;;;;;16.90;7.10;;;20.90;82.00;;;;;;5049121;28;20436;-74
2023/05/25 12:08:57;;;;;;;24.47;6.60;;;20.70;83.20;;;;;;5048830;28;20441;-75
2023/05/25 12:11:28;;;;;;;18.70;6.23;;;20.40;84.30;;;;;;5046352;28;20794;-72
2023/05/25 12:13:56;;;;;;;16.80;6.93;;;20.20;84.60;;;;;;5053694;28;20441;-76
2023/05/25 12:16:25;;;;;;;15.43;6.60;;;20.10;84.40;;;;;;5059751;28;20572;-74
2023/05/25 12:18:53;;;;;;;20.97;5.30;;;19.90;85.00;;;;;;5046512;28;20569;-74
2023/05/25 12:21:22;;;;;;;18.03;6.30;;;19.70;85.40;;;;;;5054190;28;20862;-74
2023/05/25 12:23:49;;;;;;;14.23;5.97;;;19.50;85.90;;;;;;5050727;28;20519;-75
2023/05/25 12:26:17;;;;;;;21.97;6.67;;;19.30;86.10;;;;;;5053516;28;20442;-75
2023/05/25 12:28:59;;;;;;;20.90;8.10;;;19.20;86.30;;;;;;5061512;28;20464;-75
2023/05/25 12:31:28;;;;;;;15.30;5.90;;;19.30;86.40;;;;;;5060784;28;20494;-73
2023/05/25 12:34:06;;;;;;;21.27;6.30;;;19.30;85.40;;;;;;5053796;28;20526;-73
2023/05/25 12:36:45;;;;;;;23.20;6.23;;;19.30;85.60;;;;;;5068811;28;20439;-73
2023/05/25 12:39:13;;;;;;;24.03;7.83;;;19.20;86.40;;;;;;5053993;28;20476;-74
2023/05/25 12:41:49;;;;;;;16.30;6.07;;;19.40;87.00;;;;;;5058740;28;20459;-74